createdAt,value
2019-03-04T00:01:00.974Z,10.70
2019-03-04T00:03:29.071Z,12.10
2019-03-04T00:05:57.143Z,13.27
2019-03-04T00:08:25.219Z,10.07
2019-03-04T00:10:53.286Z,14.20
2019-03-04T00:13:21.364Z,10.83
2019-03-04T00:15:49.427Z,9.73
2019-03-04T00:18:17.475Z,12.37
2019-03-04T00:20:45.529Z,13.87
2019-03-04T00:23:13.573Z,8.27
2019-03-04T00:25:41.732Z,9.80
2019-03-04T00:28:09.746Z,9.27
2019-03-04T00:30:37.987Z,14.03
2019-03-04T00:33:06.080Z,10.93
2019-03-04T00:35:34.144Z,10.90
2019-03-04T00:38:02.191Z,12.40
2019-03-04T00:40:30.281Z,13.07
2019-03-04T00:42:58.527Z,9.67
2019-03-04T00:45:26.616Z,12.13
2019-03-04T00:47:54.645Z,11.93
2019-03-04T00:50:22.704Z,11.57
2019-03-04T00:52:50.780Z,12.60
2019-03-04T00:55:18.933Z,10.20
2019-03-04T00:57:47.012Z,11.50
2019-03-04T01:00:17.979Z,9.17
2019-03-04T01:02:46.026Z,11.90
2019-03-04T01:05:14.177Z,10.00
2019-03-04T01:07:42.220Z,12.23
2019-03-04T01:10:10.586Z,10.00
2019-03-04T01:12:38.567Z,13.13
2019-03-04T01:15:07.771Z,9.53
2019-03-04T01:17:35.831Z,10.87
2019-03-04T01:20:04.427Z,10.90
2019-03-04T01:22:32.526Z,11.33
2019-03-04T01:25:00.668Z,10.63
2019-03-04T01:27:28.726Z,9.50
2019-03-04T01:29:56.818Z,8.47
2019-03-04T01:32:24.864Z,9.80
2019-03-04T01:34:52.916Z,12.20
2019-03-04T01:37:20.966Z,12.33
2019-03-04T01:39:49.009Z,8.03
2019-03-04T01:42:17.100Z,10.73
2019-03-04T01:44:45.151Z,8.17
2019-03-04T01:47:13.225Z,6.97
2019-03-04T01:49:41.325Z,9.47
2019-03-04T01:52:09.373Z,7.33
2019-03-04T01:54:37.423Z,9.60
2019-03-04T01:57:05.474Z,8.63
2019-03-04T01:59:33.510Z,9.10
2019-03-04T02:02:01.568Z,9.10
2019-03-04T02:04:29.678Z,7.40
2019-03-04T02:06:57.742Z,8.20
2019-03-04T02:09:25.984Z,7.80
2019-03-04T02:11:54.058Z,8.13
2019-03-04T02:14:22.089Z,8.23
2019-03-04T02:16:50.165Z,7.87
2019-03-04T02:19:18.223Z,8.80
2019-03-04T02:21:46.264Z,8.47
2019-03-04T02:24:24.513Z,10.33
2019-03-04T02:26:52.931Z,6.50
2019-03-04T02:29:20.989Z,6.93
2019-03-04T02:31:50.344Z,8.30
2019-03-04T02:34:18.354Z,6.93
2019-03-04T02:36:46.397Z,6.90
2019-03-04T02:39:14.572Z,9.30
2019-03-04T02:41:42.632Z,6.63
2019-03-04T02:44:10.662Z,7.33
2019-03-04T02:46:38.735Z,8.87
2019-03-04T02:49:06.790Z,6.50
2019-03-04T02:51:34.861Z,4.60
2019-03-04T02:54:02.941Z,7.83
2019-03-04T02:56:30.996Z,8.13
2019-03-04T02:58:59.067Z,7.03
2019-03-04T03:01:27.126Z,5.57
2019-03-04T03:03:55.172Z,7.50
2019-03-04T03:06:23.253Z,5.40
2019-03-04T03:08:51.739Z,8.57
2019-03-04T03:11:19.770Z,5.03
2019-03-04T03:13:47.792Z,8.83
2019-03-04T03:16:16.130Z,7.43
2019-03-04T03:18:44.149Z,5.40
2019-03-04T03:21:12.257Z,6.40
2019-03-04T03:23:40.255Z,6.27
2019-03-04T03:26:08.319Z,8.63
2019-03-04T03:28:36.358Z,7.13
2019-03-04T03:31:04.409Z,6.00
2019-03-04T03:33:32.463Z,6.10
2019-03-04T03:36:00.478Z,5.00
2019-03-04T03:38:28.516Z,6.33
2019-03-04T03:40:56.566Z,6.80
2019-03-04T03:43:24.594Z,7.17
2019-03-04T03:45:52.693Z,5.73
2019-03-04T03:48:20.735Z,6.77
2019-03-04T03:50:50.011Z,8.00
2019-03-04T03:53:18.108Z,5.73
2019-03-04T03:55:46.153Z,5.37
2019-03-04T04:00:48.945Z,4.40
2019-03-04T04:03:17.029Z,3.73
2019-03-04T04:05:45.086Z,5.87
2019-03-04T04:08:13.239Z,5.53
2019-03-04T04:10:41.286Z,4.13
2019-03-04T04:13:09.299Z,5.53
2019-03-04T04:15:37.753Z,7.20
2019-03-04T04:18:05.788Z,4.47
2019-03-04T04:20:33.864Z,5.40
2019-03-04T04:23:01.971Z,7.40
2019-03-04T04:25:30.031Z,5.13
2019-03-04T04:27:58.074Z,4.97
2019-03-04T04:30:26.840Z,6.57
2019-03-04T04:32:54.859Z,4.00
2019-03-04T04:35:22.883Z,5.53
2019-03-04T04:37:50.921Z,5.73
2019-03-04T04:40:18.973Z,6.80
2019-03-04T04:42:46.987Z,4.13
2019-03-04T04:45:15.005Z,5.67
2019-03-04T04:47:43.037Z,5.47
2019-03-04T04:50:11.727Z,4.27
2019-03-04T04:52:39.810Z,6.53
2019-03-04T04:55:07.864Z,3.40
2019-03-04T04:57:35.902Z,5.50
2019-03-04T05:00:04.212Z,5.03
2019-03-04T05:02:32.249Z,7.00
2019-03-04T05:05:00.373Z,4.17
2019-03-04T05:07:28.389Z,5.30
2019-03-04T05:09:56.445Z,5.37
2019-03-04T05:12:24.502Z,5.17
2019-03-04T05:14:52.543Z,4.77
2019-03-04T05:17:20.593Z,4.60
2019-03-04T05:19:48.636Z,6.10
2019-03-04T05:22:16.656Z,4.60
2019-03-04T05:24:44.732Z,4.00
2019-03-04T05:27:12.796Z,6.37
2019-03-04T05:29:40.854Z,5.07
2019-03-04T05:32:09.047Z,4.63
2019-03-04T05:34:37.144Z,6.23
2019-03-04T05:37:05.232Z,4.30
2019-03-04T05:39:33.298Z,6.20
2019-03-04T05:42:01.336Z,4.50
2019-03-04T05:44:29.356Z,5.27
2019-03-04T05:46:57.387Z,4.10
2019-03-04T05:49:25.451Z,5.30
2019-03-04T05:51:53.503Z,4.37
2019-03-04T05:54:21.528Z,6.30
2019-03-04T05:56:49.583Z,2.93
2019-03-04T05:59:19.927Z,3.70
2019-03-04T06:01:54.383Z,2.83
2019-03-04T06:04:22.447Z,3.53
2019-03-04T06:07:05.914Z,6.43
2019-03-04T06:09:33.992Z,2.97
2019-03-04T06:12:02.011Z,4.67
2019-03-04T06:14:30.032Z,4.90
2019-03-04T06:16:58.066Z,2.77
2019-03-04T06:19:26.153Z,3.40
2019-03-04T06:21:54.233Z,4.33
2019-03-04T06:24:22.284Z,3.70
2019-03-04T06:26:50.352Z,4.40
2019-03-04T06:29:18.421Z,2.70
2019-03-04T06:31:46.505Z,6.30
2019-03-04T06:34:14.554Z,4.43
2019-03-04T06:36:42.563Z,2.63
2019-03-04T06:39:10.632Z,5.03
2019-03-04T06:41:38.724Z,4.07
2019-03-04T06:44:06.720Z,2.80
2019-03-04T06:46:34.802Z,5.63
2019-03-04T06:49:02.871Z,4.53
2019-03-04T06:51:38.118Z,10.00
2019-03-04T06:57:03.747Z,3.67
2019-03-04T06:59:37.904Z,4.60
2019-03-04T07:02:08.843Z,4.67
2019-03-04T07:04:39.729Z,3.17
2019-03-04T07:10:04.827Z,3.73
2019-03-04T07:12:32.885Z,4.87
2019-03-04T07:15:00.910Z,4.30
2019-03-04T07:17:29.021Z,4.93
2019-03-04T07:20:02.205Z,3.70
2019-03-04T07:22:30.278Z,3.90
2019-03-04T07:24:58.312Z,5.83
2019-03-04T07:27:26.334Z,6.30
2019-03-04T07:29:54.400Z,4.30
2019-03-04T07:32:22.427Z,5.70
2019-03-04T07:34:50.482Z,4.93
2019-03-04T07:37:18.564Z,5.83
2019-03-04T07:39:46.618Z,4.27
2019-03-04T07:42:14.668Z,4.37
2019-03-04T07:44:42.743Z,3.10
2019-03-04T07:47:10.770Z,6.47
2019-03-04T07:49:38.797Z,4.83
2019-03-04T07:52:07.076Z,6.53
2019-03-04T07:54:35.098Z,4.60
2019-03-04T07:57:03.248Z,4.67
2019-03-04T07:59:31.349Z,5.30
2019-03-04T08:01:59.400Z,5.43
2019-03-04T08:04:27.442Z,4.30
2019-03-04T08:07:32.820Z,3.67
2019-03-04T08:10:12.490Z,3.70
2019-03-04T08:12:46.984Z,5.23
2019-03-04T08:15:16.067Z,5.37
2019-03-04T08:17:44.168Z,4.23
2019-03-04T08:20:12.366Z,3.43
2019-03-04T08:22:40.699Z,2.13
2019-03-04T08:25:10.395Z,7.00
2019-03-04T08:27:38.735Z,4.70
2019-03-04T08:30:08.134Z,2.40
2019-03-04T08:32:36.340Z,4.30
2019-03-04T08:35:04.682Z,6.20
2019-03-04T08:37:32.774Z,3.60
2019-03-04T08:40:00.843Z,4.63
2019-03-04T08:42:28.906Z,4.77
2019-03-04T08:44:56.943Z,2.50
2019-03-04T08:47:25.016Z,4.40
2019-03-04T08:49:53.030Z,3.03
2019-03-04T08:52:21.097Z,2.90
2019-03-04T08:54:49.126Z,3.77
2019-03-04T08:57:17.164Z,3.17
2019-03-04T08:59:45.207Z,4.47
2019-03-04T09:02:13.271Z,5.83
2019-03-04T09:04:41.318Z,4.70
2019-03-04T09:07:09.332Z,1.83
2019-03-04T09:09:37.424Z,2.33
2019-03-04T09:12:05.466Z,2.63
2019-03-04T09:14:33.543Z,2.97
2019-03-04T09:17:01.592Z,3.20
2019-03-04T09:19:29.642Z,1.83
2019-03-04T09:21:57.660Z,1.53
2019-03-04T09:24:25.696Z,1.23
2019-03-04T09:26:53.759Z,1.63
2019-03-04T09:29:21.802Z,2.87
2019-03-04T09:31:49.851Z,3.63
2019-03-04T09:34:17.887Z,1.23
2019-03-04T09:36:45.895Z,1.27
2019-03-04T09:39:15.423Z,1.40
2019-03-04T09:41:43.489Z,4.87
2019-03-04T09:44:11.574Z,2.40
2019-03-04T09:46:39.612Z,2.70
2019-03-04T09:49:07.660Z,1.60
2019-03-04T09:51:35.734Z,2.43
2019-03-04T09:54:03.789Z,1.90
2019-03-04T09:56:31.866Z,2.43
2019-03-04T09:58:59.881Z,1.20
2019-03-04T10:01:30.228Z,2.37
2019-03-04T10:04:20.311Z,3.23
2019-03-04T10:07:06.605Z,2.03
2019-03-04T10:09:56.533Z,3.57
2019-03-04T10:12:46.587Z,2.67
2019-03-04T10:15:20.359Z,3.17
2019-03-04T10:18:13.485Z,2.97
2019-03-04T10:21:02.450Z,2.60
2019-03-04T10:23:37.537Z,2.60
2019-03-04T10:26:23.543Z,3.57
2019-03-04T10:29:09.260Z,3.23
2019-03-04T10:31:40.161Z,3.20
2019-03-04T10:34:32.065Z,3.63
2019-03-04T10:37:03.899Z,3.13
2019-03-04T10:39:35.704Z,3.93
2019-03-04T10:42:22.867Z,3.13
2019-03-04T10:45:04.743Z,2.73
2019-03-04T10:47:32.761Z,3.07
2019-03-04T10:50:00.827Z,4.30
2019-03-04T10:52:28.847Z,1.57
2019-03-04T10:54:56.918Z,2.27
2019-03-04T10:57:24.995Z,2.40
2019-03-04T10:59:53.060Z,4.03
2019-03-04T11:02:21.084Z,1.47
2019-03-04T11:04:49.105Z,3.63
2019-03-04T11:07:17.714Z,6.23
2019-03-04T11:09:46.202Z,2.67
2019-03-04T11:12:14.643Z,4.30
2019-03-04T11:14:43.139Z,2.47
2019-03-04T11:17:11.535Z,2.80
2019-03-04T11:19:39.982Z,6.40
2019-03-04T11:22:09.035Z,4.10
2019-03-04T11:24:37.529Z,5.93
2019-03-04T11:27:05.904Z,2.87
2019-03-04T11:29:34.829Z,3.60
2019-03-04T11:32:03.351Z,3.07
2019-03-04T11:34:31.820Z,3.20
2019-03-04T11:37:00.326Z,3.00
2019-03-04T11:39:52.584Z,3.70
2019-03-04T11:42:21.158Z,3.93
2019-03-04T11:44:49.647Z,4.03
2019-03-04T11:47:21.151Z,5.20
2019-03-04T11:49:49.817Z,2.77
2019-03-04T11:52:18.305Z,3.27
2019-03-04T11:54:46.583Z,6.47
2019-03-04T11:57:14.953Z,4.47
2019-03-04T11:59:43.458Z,1.90
2019-03-04T12:02:18.467Z,2.97
2019-03-04T12:04:46.935Z,2.80
2019-03-04T12:07:15.491Z,1.90
2019-03-04T12:09:44.116Z,2.90
2019-03-04T12:12:12.583Z,1.77
2019-03-04T12:14:40.951Z,3.87
2019-03-04T12:17:09.752Z,5.23
2019-03-04T12:19:38.192Z,1.97
2019-03-04T12:22:06.949Z,1.73
2019-03-04T12:24:35.483Z,1.77
2019-03-04T12:27:04.370Z,2.43
2019-03-04T12:29:33.040Z,1.57
2019-03-04T12:32:15.449Z,0.93
2019-03-04T12:34:44.202Z,1.33
2019-03-04T12:37:12.793Z,4.17
2019-03-04T12:39:41.179Z,1.67
2019-03-04T12:42:09.718Z,1.17
2019-03-04T12:44:38.517Z,1.17
2019-03-04T12:47:07.026Z,2.13
2019-03-04T12:49:35.379Z,1.20
2019-03-04T12:52:03.361Z,1.60
2019-03-04T12:54:31.464Z,1.93
2019-03-04T12:56:59.524Z,3.77
2019-03-04T12:59:28.076Z,2.47
2019-03-04T13:01:56.157Z,1.40
2019-03-04T13:04:24.572Z,1.67
2019-03-04T13:06:52.715Z,1.67
2019-03-04T13:09:21.203Z,1.33
2019-03-04T13:11:49.417Z,2.47
2019-03-04T13:14:17.555Z,1.13
2019-03-04T13:16:45.880Z,1.13
2019-03-04T13:19:13.990Z,5.10
2019-03-04T13:21:42.788Z,2.60
2019-03-04T13:24:11.180Z,1.63
2019-03-04T13:26:39.909Z,3.87
2019-03-04T13:29:08.350Z,2.73
2019-03-04T13:31:36.396Z,2.97
2019-03-04T13:34:04.750Z,5.70
2019-03-04T13:36:32.963Z,4.93
2019-03-04T13:39:01.017Z,2.67
2019-03-04T13:41:29.076Z,2.20
2019-03-04T13:43:57.398Z,1.87
2019-03-04T13:46:25.491Z,3.53
2019-03-04T13:48:55.679Z,2.67
2019-03-04T13:51:23.445Z,4.23
2019-03-04T13:53:51.716Z,2.53
2019-03-04T13:56:19.749Z,5.10
2019-03-04T13:58:47.809Z,1.97
2019-03-04T14:01:15.900Z,3.40
2019-03-04T14:03:44.020Z,6.27
2019-03-04T14:06:12.095Z,3.50
2019-03-04T14:08:40.189Z,3.47
2019-03-04T14:11:08.886Z,3.47
2019-03-04T14:13:36.914Z,2.07
2019-03-04T14:16:05.234Z,3.00
2019-03-04T14:18:33.285Z,4.70
2019-03-04T14:21:01.308Z,4.63
2019-03-04T14:23:29.374Z,5.07
2019-03-04T14:25:57.454Z,4.77
2019-03-04T14:28:25.482Z,1.97
2019-03-04T14:30:53.552Z,3.90
2019-03-04T14:33:21.677Z,5.37
2019-03-04T14:35:49.700Z,3.13
2019-03-04T14:38:17.731Z,5.90
2019-03-04T14:40:45.899Z,4.17
2019-03-04T14:43:13.956Z,6.37
2019-03-04T14:45:42.073Z,3.47
2019-03-04T14:48:10.091Z,4.27
2019-03-04T14:50:38.168Z,5.97
2019-03-04T14:53:06.228Z,4.07
2019-03-04T14:55:34.334Z,5.00
2019-03-04T14:58:02.566Z,9.77
2019-03-04T15:00:35.583Z,8.83
2019-03-04T15:03:06.090Z,3.53
2019-03-04T15:05:34.172Z,7.43
2019-03-04T15:08:02.222Z,6.73
2019-03-04T15:10:30.374Z,6.57
2019-03-04T15:12:58.435Z,5.40
2019-03-04T15:15:26.623Z,4.83
2019-03-04T15:17:54.704Z,6.57
2019-03-04T15:20:22.867Z,3.83
2019-03-04T15:22:50.998Z,6.83
2019-03-04T15:25:21.119Z,4.70
2019-03-04T15:27:49.132Z,5.43
2019-03-04T15:30:17.754Z,4.93
2019-03-04T15:32:45.837Z,3.93
2019-03-04T15:35:13.974Z,4.87
2019-03-04T15:37:42.127Z,7.23
2019-03-04T15:40:10.337Z,6.10
2019-03-04T15:42:38.406Z,4.60
2019-03-04T15:45:06.869Z,7.53
2019-03-04T15:47:36.643Z,3.77
2019-03-04T15:50:04.757Z,5.10
2019-03-04T15:52:32.875Z,5.57
2019-03-04T15:55:00.949Z,3.47
2019-03-04T15:57:28.921Z,6.10
2019-03-04T15:59:56.982Z,6.20
2019-03-04T16:02:25.267Z,7.37
2019-03-04T16:04:53.294Z,4.47
2019-03-04T16:07:21.573Z,7.73
2019-03-04T16:09:49.597Z,6.27
2019-03-04T16:12:20.702Z,6.23
2019-03-04T16:14:48.752Z,5.27
2019-03-04T16:17:16.804Z,7.07
2019-03-04T16:19:44.873Z,4.83
2019-03-04T16:22:12.937Z,7.07
2019-03-04T16:24:40.996Z,5.70
2019-03-04T16:27:10.587Z,5.40
2019-03-04T16:29:38.650Z,5.83
2019-03-04T16:32:07.085Z,5.37
2019-03-04T16:34:35.633Z,7.97
2019-03-04T16:37:08.003Z,6.07
2019-03-04T16:39:36.368Z,6.33
2019-03-04T16:42:05.917Z,5.17
2019-03-04T16:44:34.046Z,8.97
2019-03-04T16:47:02.093Z,7.93
2019-03-04T16:49:30.172Z,6.53
2019-03-04T16:51:58.194Z,6.37
2019-03-04T16:54:26.302Z,8.87
2019-03-04T16:56:54.376Z,8.97
2019-03-04T16:59:22.415Z,7.87
2019-03-04T17:01:50.590Z,4.90
2019-03-04T17:04:18.619Z,8.10
2019-03-04T17:06:46.727Z,6.37
2019-03-04T17:09:15.793Z,9.93
2019-03-04T17:11:43.948Z,6.13
2019-03-04T17:14:11.999Z,7.80
2019-03-04T17:16:40.217Z,7.07
2019-03-04T17:19:08.393Z,5.87
2019-03-04T17:21:36.445Z,10.47
2019-03-04T17:24:04.535Z,7.03
2019-03-04T17:26:33.382Z,12.53
2019-03-04T17:29:01.644Z,8.43
2019-03-04T17:31:29.647Z,11.30
2019-03-04T17:33:57.717Z,6.90
2019-03-04T17:36:25.778Z,14.03
2019-03-04T17:38:53.832Z,8.83
2019-03-04T17:41:22.006Z,6.63
2019-03-04T17:43:50.083Z,12.87
2019-03-04T17:46:18.252Z,10.30
2019-03-04T17:48:46.426Z,11.17
2019-03-04T17:51:14.499Z,9.53
2019-03-04T17:53:42.542Z,11.03
2019-03-04T17:56:10.642Z,11.40
2019-03-04T17:58:38.753Z,14.63
2019-03-04T18:01:06.936Z,12.53
2019-03-04T18:03:35.647Z,15.70
2019-03-04T18:06:04.001Z,11.23
2019-03-04T18:08:32.503Z,13.77
2019-03-04T18:11:01.044Z,12.33
2019-03-04T18:13:29.597Z,15.70
2019-03-04T18:15:58.045Z,19.70
2019-03-04T18:18:53.667Z,14.67
2019-03-04T18:21:21.910Z,14.87
2019-03-04T18:23:50.174Z,13.80
2019-03-04T18:26:20.275Z,17.40
2019-03-04T18:28:57.978Z,9.47
2019-03-04T18:31:45.204Z,12.80
2019-03-04T18:34:35.151Z,12.17
2019-03-04T18:37:25.160Z,11.47
2019-03-04T18:40:00.346Z,8.97
2019-03-04T18:42:56.814Z,15.53
2019-03-04T18:45:42.597Z,5.57
2019-03-04T18:48:24.338Z,8.43
2019-03-04T18:50:52.439Z,13.37
2019-03-04T18:53:20.502Z,13.17
2019-03-04T18:55:48.604Z,13.93
2019-03-04T18:58:16.735Z,10.33
2019-03-04T19:00:57.168Z,14.03
2019-03-04T19:03:25.233Z,16.57
2019-03-04T19:05:53.314Z,15.60
2019-03-04T19:08:21.394Z,8.80
2019-03-04T19:10:49.466Z,11.97
2019-03-04T19:13:17.616Z,11.17
2019-03-04T19:15:45.720Z,9.90
2019-03-04T19:18:13.834Z,14.93
2019-03-04T19:20:41.917Z,15.43
2019-03-04T19:23:10.012Z,17.97
2019-03-04T19:25:40.917Z,19.10
2019-03-04T19:28:09.054Z,10.97
2019-03-04T19:30:55.323Z,11.00
2019-03-04T19:33:23.370Z,16.17
2019-03-04T19:35:51.454Z,13.37
2019-03-04T19:38:19.551Z,12.47
2019-03-04T19:40:47.640Z,15.80
2019-03-04T19:43:15.716Z,13.40
2019-03-04T19:45:44.072Z,13.57
2019-03-04T19:48:12.122Z,18.73
2019-03-04T19:50:40.616Z,11.90
2019-03-04T19:53:08.785Z,11.17
2019-03-04T19:55:36.898Z,12.60
2019-03-04T19:58:05.113Z,12.43
2019-03-04T20:00:34.022Z,8.67
2019-03-04T20:03:02.081Z,11.30
2019-03-04T20:05:31.027Z,14.53
2019-03-04T20:07:59.302Z,11.00
2019-03-04T20:10:27.510Z,7.70
2019-03-04T20:12:55.645Z,9.63
2019-03-04T20:15:23.930Z,11.00
2019-03-04T20:17:52.151Z,7.97
2019-03-04T20:20:32.402Z,8.77
2019-03-04T20:23:00.605Z,7.20
2019-03-04T20:25:28.722Z,11.20
2019-03-04T20:27:56.784Z,8.43
2019-03-04T20:30:48.943Z,7.10
2019-03-04T20:33:17.126Z,8.97
2019-03-04T20:35:45.334Z,12.73
2019-03-04T20:38:13.519Z,10.83
2019-03-04T20:40:42.021Z,9.80
2019-03-04T20:43:10.206Z,12.57
2019-03-04T20:46:15.713Z,9.03
2019-03-04T20:48:44.283Z,10.60
2019-03-04T20:51:12.856Z,11.00
2019-03-04T20:53:41.407Z,9.33
2019-03-04T20:56:09.537Z,14.47
2019-03-04T20:58:37.720Z,9.73
2019-03-04T21:01:06.053Z,11.50
2019-03-04T21:03:35.157Z,8.23
2019-03-04T21:06:03.644Z,14.37
2019-03-04T21:08:31.743Z,9.93
2019-03-04T21:11:00.003Z,9.67
2019-03-04T21:13:35.121Z,12.03
2019-03-04T21:15:58.158Z,9.47
2019-03-04T21:18:27.434Z,8.07
2019-03-04T21:20:55.497Z,12.77
2019-03-04T21:23:23.614Z,14.30
2019-03-04T21:29:30.136Z,10.47
2019-03-04T21:35:41.830Z,11.17
2019-03-04T21:38:10.298Z,10.33
2019-03-04T21:40:41.745Z,8.97
2019-03-04T21:43:12.484Z,11.77
2019-03-04T21:46:02.557Z,7.50
2019-03-04T21:48:37.243Z,8.87
2019-03-04T21:51:23.325Z,5.53
2019-03-04T21:53:51.470Z,10.60
2019-03-04T21:56:31.486Z,12.57
2019-03-04T21:58:59.639Z,10.63
2019-03-04T22:01:29.589Z,11.57
2019-03-04T22:03:57.749Z,8.47
2019-03-04T22:06:25.869Z,12.90
2019-03-04T22:08:53.935Z,19.70
2019-03-04T22:11:22.040Z,8.13
2019-03-04T22:13:50.099Z,9.27
2019-03-04T22:16:18.204Z,7.87
2019-03-04T22:18:46.297Z,11.13
2019-03-04T22:21:16.686Z,11.17
2019-03-04T22:23:44.121Z,8.97
2019-03-04T22:26:12.171Z,7.57
2019-03-04T22:28:40.260Z,7.70
2019-03-04T22:31:08.401Z,13.97
2019-03-04T22:33:36.450Z,10.27
2019-03-04T22:36:04.506Z,10.37
2019-03-04T22:38:32.612Z,11.50
2019-03-04T22:41:00.649Z,14.83
2019-03-04T22:43:28.780Z,9.50
2019-03-04T22:45:56.820Z,11.93
2019-03-04T22:48:24.879Z,12.27
2019-03-04T22:50:53.454Z,14.37
2019-03-04T22:53:21.477Z,9.63
2019-03-04T22:55:49.573Z,12.37
2019-03-04T22:58:28.246Z,7.87
2019-03-04T23:01:29.788Z,14.13
2019-03-04T23:04:00.323Z,10.03
2019-03-04T23:06:28.441Z,11.33
2019-03-04T23:08:56.519Z,10.60
2019-03-04T23:11:25.876Z,8.97
2019-03-04T23:13:55.997Z,25.17
2019-03-04T23:16:28.054Z,15.90
2019-03-04T23:18:56.203Z,14.60
2019-03-04T23:21:24.302Z,11.87
2019-03-04T23:23:52.322Z,11.90
2019-03-04T23:26:20.382Z,18.10
2019-03-04T23:28:48.443Z,14.87
2019-03-04T23:31:16.526Z,13.90
2019-03-04T23:33:44.605Z,11.93
2019-03-04T23:36:12.675Z,10.57
2019-03-04T23:38:40.815Z,10.97
2019-03-04T23:41:08.877Z,9.10
2019-03-04T23:43:36.892Z,9.67
2019-03-04T23:46:04.947Z,13.27
2019-03-04T23:48:32.993Z,14.07
2019-03-04T23:51:01.079Z,11.53
2019-03-04T23:53:31.121Z,13.13
2019-03-04T23:55:58.786Z,10.80
2019-03-04T23:58:26.843Z,12.50
